Tropical Cyclones
[Index]
Main Index Home Page Stock Weather Photos Extreme Storms Discussion Storm News and Storm Chasing Reports Tropical Cyclones / Hurricanes / Typhoons Weather Data and Links Wild Fires / Bushfires Weather Observation Techniques Weather Picture Catalogue Tornado Pictures and Reports Stock Video Footage and DVDs for sale
Season 2001-2002 Tropical Cyclone ERROL Track Map
Season 2001-2002 Summaries (Operational Data): [AU] [SIO] [SPAC] [SH]
<<- Previous TC | 2001-2002 Season | Next TC ->>

click for intensity scale information  Lat/long Grid: Show Hide

 Date Labels: Show Hide

Operational Tropical Cyclone Data : JTWC Advisories

Name: ERROL
Number: 0224

08 May 2002 04:00 UTC to 16 May 2002 04:00 UTC

    date/time    lat    long     hPa   cat  kts
2002-05-08 04    4.0    97.0    1005                     
2002-05-09 04    6.0    97.8     995    1    35          
2002-05-09 10    6.7    97.5     995    1    35          
2002-05-09 16    7.0    96.9     995    1    35          
2002-05-09 22    7.1    96.6     995    1    35          
2002-05-10 04    6.4    97.4     995    1    35          
2002-05-10 10    6.4    98.0     995    1    35          
2002-05-10 16    6.4    97.8     995    1    35          
2002-05-10 22    6.4    97.2     995    1    35          
2002-05-11 04    6.3    97.1     995    1    35          
2002-05-11 10    6.5    96.6     995    1    35          
2002-05-11 15    6.1    96.8     995    1    35          
2002-05-11 22    6.3    96.2     995    1    35          
2002-05-12 04    6.0    96.0     996    1    35          
2002-05-12 10    6.1    95.0     995    1    35          
2002-05-12 16    6.3    94.3     995    1    35          
2002-05-12 22    6.8    94.4     995    1    35          
2002-05-13 04    8.5    95.8     995    1    35          
2002-05-13 10    8.8    95.5     995    1    35          
2002-05-13 16    8.8    95.0     997    1    35          
2002-05-13 21    8.8    96.0    1000         33          
2002-05-14 04    9.9    96.6    1000         30          
2002-05-15 04   15.5    98.0    1004                     
2002-05-15 18   16.5   101.0    1006                     
2002-05-16 04   17.3   100.2    1005                     
Winds are 10-min average.

Tropical cyclone tracks developed by Michael Bath using operational warnings and advisories and Google Maps.


[Australian Severe Weather index] [Copyright Notice] [Email Contacts] [Search This Site] [Privacy Policy]
Document: tropical_cyclone_errol.htm Updated: 2 May 2017